Time;durP1;ratioP1;P1;durP2;ratioP2;P2;SDS_P1;SDS_P2;PMS_P1;PMS_P2;Temp;Humidity;BMP_temperature;BMP_pressure;BME280_temperature;BME280_humidity;BME280_pressure;Samples;Min_cycle;Max_cycle;Signal;HPM_P1;HPM_P2
2023/11/12 00:00:25;;;;;;;17.40;10.45;;;;;;;;;;5862544;28;20060;-72
2023/11/12 00:03:16;;;;;;;16.10;11.35;;;;;;;;;;5862726;28;20115;-72
2023/11/12 00:06:07;;;;;;;13.35;9.25;;;;;;;;;;5862052;28;20452;-72
2023/11/12 00:08:58;;;;;;;17.10;12.18;;;;;;;;;;5862288;28;20049;-72
2023/11/12 00:11:48;;;;;;;17.65;11.75;;;;;;;;;;5862193;28;20045;-72
2023/11/12 00:14:42;;;;;;;19.80;11.27;;;;;;;;;;5862212;28;20471;-72
2023/11/12 00:17:37;;;;;;;20.75;12.80;;;;;;;;;;5862166;28;20073;-72
2023/11/12 00:20:28;;;;;;;19.30;11.68;;;;;;;;;;5862265;28;20051;-72
2023/11/12 00:23:23;;;;;;;14.88;10.27;;;;;;;;;;5862365;28;20068;-72
2023/11/12 00:26:15;;;;;;;9.38;8.38;;;;;;;;;;5860833;28;20397;-72
2023/11/12 00:29:06;;;;;;;15.52;9.20;;;;;;;;;;5862233;28;20049;-72
2023/11/12 00:31:57;;;;;;;12.70;6.78;;;;;;;;;;5862458;28;20123;-72
2023/11/12 00:34:48;;;;;;;19.27;8.73;;;;;;;;;;5861893;28;20063;-72
2023/11/12 00:37:39;;;;;;;16.80;8.98;;;;;;;;;;5861978;28;20418;-72
2023/11/12 00:40:32;;;;;;;8.75;7.80;;;;;;;;;;5862184;28;20053;-72
2023/11/12 00:43:27;;;;;;;13.90;8.15;;;;;;;;;;5861745;28;20053;-72
2023/11/12 00:46:18;;;;;;;10.90;8.77;;;;;;;;;;5861782;28;20076;-72
2023/11/12 00:49:09;;;;;;;7.22;6.40;;;;;;;;;;5861701;28;20050;-72
2023/11/12 00:51:59;;;;;;;12.02;7.13;;;;;;;;;;5862117;28;20041;-72
2023/11/12 00:54:50;;;;;;;9.35;6.93;;;;;;;;;;5862102;28;20049;-72
2023/11/12 00:57:41;;;;;;;11.85;8.77;;;;;;;;;;5861564;28;20065;-72
2023/11/12 01:00:32;;;;;;;6.32;5.53;;;;;;;;;;5861834;28;20053;-72
2023/11/12 01:03:28;;;;;;;9.07;6.70;;;;;;;;;;5871600;28;20052;-72
2023/11/12 01:06:19;;;;;;;9.75;5.63;;;;;;;;;;5861790;28;20053;-72
2023/11/12 01:09:10;;;;;;;10.57;7.45;;;;;;;;;;5861687;28;20046;-72
2023/11/12 01:12:02;;;;;;;13.35;7.20;;;;;;;;;;5861841;28;20046;-72
2023/11/12 01:14:52;;;;;;;8.57;7.30;;;;;;;;;;5861873;28;20049;-72
2023/11/12 01:17:45;;;;;;;9.27;6.95;;;;;;;;;;5861423;28;20056;-72
2023/11/12 01:20:36;;;;;;;9.10;6.75;;;;;;;;;;5866006;28;20050;-72
2023/11/12 01:23:26;;;;;;;14.75;8.25;;;;;;;;;;5865882;28;20388;-72
2023/11/12 01:26:17;;;;;;;21.98;9.70;;;;;;;;;;5866084;28;20060;-72
2023/11/12 01:29:08;;;;;;;10.35;7.00;;;;;;;;;;5865776;28;20046;-72
2023/11/12 01:31:59;;;;;;;7.32;4.68;;;;;;;;;;5866292;28;20052;-72
2023/11/12 01:34:51;;;;;;;8.25;4.97;;;;;;;;;;5866117;28;20701;-72
2023/11/12 01:37:42;;;;;;;9.02;5.40;;;;;;;;;;5864152;28;20072;-72
2023/11/12 01:40:39;;;;;;;6.35;5.47;;;;;;;;;;5865794;28;20383;-72
2023/11/12 01:43:30;;;;;;;10.45;7.03;;;;;;;;;;5865538;28;20049;-72
2023/11/12 01:46:21;;;;;;;10.93;6.85;;;;;;;;;;5865547;28;20157;-72
2023/11/12 01:49:12;;;;;;;7.65;5.10;;;;;;;;;;5864231;28;20053;-72
2023/11/12 01:52:08;;;;;;;6.13;5.22;;;;;;;;;;5865192;28;20046;-72
2023/11/12 01:55:01;;;;;;;7.32;5.88;;;;;;;;;;5866128;28;20498;-72
2023/11/12 01:57:53;;;;;;;11.38;5.72;;;;;;;;;;5865463;28;20061;-72
2023/11/12 02:00:44;;;;;;;5.88;5.15;;;;;;;;;;5865125;28;20049;-72
2023/11/12 02:03:36;;;;;;;10.10;6.93;;;;;;;;;;5865161;28;20076;-72
2023/11/12 02:06:27;;;;;;;8.68;4.40;;;;;;;;;;5865053;28;20053;-72
2023/11/12 02:09:21;;;;;;;13.30;4.93;;;;;;;;;;5864968;28;20061;-72
2023/11/12 02:12:13;;;;;;;8.13;4.88;;;;;;;;;;5864705;28;20053;-72
2023/11/12 02:15:07;;;;;;;8.50;4.93;;;;;;;;;;5865042;28;20460;-72
2023/11/12 02:17:58;;;;;;;8.35;5.90;;;;;;;;;;5865373;28;20049;-72
2023/11/12 02:20:48;;;;;;;5.45;4.90;;;;;;;;;;5864850;28;20423;-72
2023/11/12 02:23:39;;;;;;;13.55;5.30;;;;;;;;;;5864663;28;20045;-72
2023/11/12 02:26:30;;;;;;;7.55;5.47;;;;;;;;;;5864629;28;20042;-71
2023/11/12 02:29:22;;;;;;;6.93;4.03;;;;;;;;;;5863997;28;20060;-71
2023/11/12 02:32:12;;;;;;;7.05;5.47;;;;;;;;;;5863971;28;20071;-71
2023/11/12 02:35:04;;;;;;;7.68;4.97;;;;;;;;;;5864617;28;20042;-71
2023/11/12 02:37:55;;;;;;;9.15;5.95;;;;;;;;;;5864901;28;20060;-71
2023/11/12 02:40:46;;;;;;;7.18;5.00;;;;;;;;;;5864434;28;20067;-71
2023/11/12 02:43:37;;;;;;;8.77;4.65;;;;;;;;;;5864325;28;20410;-71
2023/11/12 02:46:28;;;;;;;6.30;5.30;;;;;;;;;;5863062;28;20144;-71
2023/11/12 02:49:35;;;;;;;9.85;5.13;;;;;;;;;;5864409;28;20049;-71
2023/11/12 02:52:26;;;;;;;11.18;4.85;;;;;;;;;;5863720;28;20047;-71
2023/11/12 02:55:17;;;;;;;4.57;3.83;;;;;;;;;;5863964;28;20060;-71
2023/11/12 02:58:07;;;;;;;6.88;5.18;;;;;;;;;;5863858;28;20069;-71
2023/11/12 03:00:58;;;;;;;4.88;4.03;;;;;;;;;;5864507;28;20049;-71
2023/11/12 03:03:49;;;;;;;5.82;4.82;;;;;;;;;;5863675;28;20057;-71
2023/11/12 03:06:40;;;;;;;5.70;3.90;;;;;;;;;;5863792;28;20519;-71
2023/11/12 03:09:31;;;;;;;7.45;4.22;;;;;;;;;;5863781;28;20128;-71
2023/11/12 03:12:22;;;;;;;9.20;3.88;;;;;;;;;;5863479;28;20080;-71
2023/11/12 03:15:13;;;;;;;5.03;3.90;;;;;;;;;;5862343;28;20136;-71
2023/11/12 03:18:04;;;;;;;8.52;4.75;;;;;;;;;;5863525;28;20443;-71
2023/11/12 03:20:55;;;;;;;8.50;5.13;;;;;;;;;;5864105;28;20056;-71
2023/11/12 03:23:46;;;;;;;5.28;4.40;;;;;;;;;;5863519;28;20045;-71
2023/11/12 03:26:36;;;;;;;6.65;5.72;;;;;;;;;;5863405;28;20057;-71
2023/11/12 03:29:27;;;;;;;6.10;4.30;;;;;;;;;;5863359;28;20049;-71
2023/11/12 03:32:21;;;;;;;9.70;5.68;;;;;;;;;;5863211;28;20806;-71
2023/11/12 03:35:12;;;;;;;8.50;5.47;;;;;;;;;;5863347;28;20049;-71
2023/11/12 03:38:03;;;;;;;5.32;4.68;;;;;;;;;;5863316;28;20499;-71
2023/11/12 03:40:55;;;;;;;11.10;5.10;;;;;;;;;;5863498;28;20053;-71
2023/11/12 03:43:46;;;;;;;8.65;5.70;;;;;;;;;;5845597;28;20051;-71
2023/11/12 03:46:36;;;;;;;6.30;5.45;;;;;;;;;;5862846;28;20064;-71
2023/11/12 03:49:27;;;;;;;5.90;4.97;;;;;;;;;;5863001;28;20045;-71
2023/11/12 03:52:18;;;;;;;5.50;4.28;;;;;;;;;;5862796;28;20456;-72
2023/11/12 03:55:09;;;;;;;6.97;5.88;;;;;;;;;;5862807;28;20056;-72
2023/11/12 03:58:00;;;;;;;9.50;5.43;;;;;;;;;;5863223;28;20065;-71
2023/11/12 04:00:51;;;;;;;7.80;5.05;;;;;;;;;;5862943;28;20041;-71
2023/11/12 04:03:41;;;;;;;5.22;4.68;;;;;;;;;;5862472;28;20049;-71
2023/11/12 04:06:32;;;;;;;17.95;5.95;;;;;;;;;;5862515;28;20057;-71
2023/11/12 04:09:23;;;;;;;15.70;4.45;;;;;;;;;;5862531;28;20057;-71
2023/11/12 04:12:14;;;;;;;7.35;3.97;;;;;;;;;;5862186;28;20049;-71
2023/11/12 04:15:06;;;;;;;17.17;4.60;;;;;;;;;;5861210;28;20176;-71
2023/11/12 04:17:57;;;;;;;6.82;4.15;;;;;;;;;;5862881;28;20046;-72
2023/11/12 04:20:48;;;;;;;3.15;2.72;;;;;;;;;;5862372;28;20045;-72
2023/11/12 04:23:39;;;;;;;6.47;2.08;;;;;;;;;;5860908;28;20042;-72
2023/11/12 04:26:31;;;;;;;5.10;3.63;;;;;;;;;;5862278;28;20057;-71
2023/11/12 04:29:23;;;;;;;3.08;2.13;;;;;;;;;;5862264;28;20088;-71
2023/11/12 04:32:14;;;;;;;1.67;1.52;;;;;;;;;;5862101;28;20060;-71
2023/11/12 04:35:06;;;;;;;1.80;1.15;;;;;;;;;;5860758;28;20071;-71
2023/11/12 04:37:57;;;;;;;12.95;2.08;;;;;;;;;;5862424;28;20045;-71
2023/11/12 04:40:48;;;;;;;3.33;2.47;;;;;;;;;;5862148;28;20044;-71
2023/11/12 04:43:42;;;;;;;2.85;1.58;;;;;;;;;;5861897;28;20052;-71
2023/11/12 04:46:33;;;;;;;1.58;1.38;;;;;;;;;;5862104;28;20049;-71
2023/11/12 04:49:24;;;;;;;1.90;1.55;;;;;;;;;;5862015;28;20057;-71
2023/11/12 04:52:15;;;;;;;0.85;0.82;;;;;;;;;;5861894;28;20522;-71
2023/11/12 04:55:07;;;;;;;3.28;1.10;;;;;;;;;;5866083;28;20519;-71
2023/11/12 04:57:58;;;;;;;0.70;0.70;;;;;;;;;;5865876;28;20446;-71
2023/11/12 05:00:51;;;;;;;0.63;0.63;;;;;;;;;;5866829;28;20518;-71
2023/11/12 05:03:42;;;;;;;0.70;0.70;;;;;;;;;;5866441;28;20049;-71
2023/11/12 05:06:33;;;;;;;2.50;1.70;;;;;;;;;;5866434;28;20046;-71
2023/11/12 05:09:24;;;;;;;0.88;0.85;;;;;;;;;;5866488;28;20057;-71
2023/11/12 05:12:15;;;;;;;0.95;0.60;;;;;;;;;;5865997;28;20103;-71
2023/11/12 05:15:09;;;;;;;0.63;0.63;;;;;;;;;;5866213;28;20053;-71
2023/11/12 05:18:05;;;;;;;1.77;1.30;;;;;;;;;;5866715;28;20119;-70
2023/11/12 05:20:56;;;;;;;0.38;0.38;;;;;;;;;;5866660;28;20042;-71
2023/11/12 05:23:47;;;;;;;0.45;0.45;;;;;;;;;;5866225;28;20042;-71
2023/11/12 05:26:41;;;;;;;0.68;0.63;;;;;;;;;;5865986;28;20045;-71
2023/11/12 05:29:33;;;;;;;0.50;0.50;;;;;;;;;;5866126;28;20045;-71
2023/11/12 05:32:23;;;;;;;1.63;1.17;;;;;;;;;;5865891;28;20053;-71
2023/11/12 05:35:14;;;;;;;1.35;1.25;;;;;;;;;;5865876;28;20416;-70
2023/11/12 05:38:05;;;;;;;1.75;0.50;;;;;;;;;;5865787;28;20053;-71
2023/11/12 05:40:56;;;;;;;0.90;0.47;;;;;;;;;;5866455;28;20041;-71
2023/11/12 05:43:46;;;;;;;0.20;0.20;;;;;;;;;;5865667;28;20049;-71
2023/11/12 05:46:37;;;;;;;0.63;0.63;;;;;;;;;;5865505;28;20050;-71
2023/11/12 05:49:28;;;;;;;0.80;0.70;;;;;;;;;;5865644;28;20064;-71
2023/11/12 05:52:19;;;;;;;0.85;0.85;;;;;;;;;;5865343;28;20057;-71
2023/11/12 05:55:14;;;;;;;4.47;3.75;;;;;;;;;;5865671;28;20065;-71
2023/11/12 05:58:06;;;;;;;8.43;6.22;;;;;;;;;;5865335;28;20052;-71
2023/11/12 06:00:58;;;;;;;12.23;4.55;;;;;;;;;;5865792;28;20038;-71
2023/11/12 06:03:49;;;;;;;6.28;1.15;;;;;;;;;;5865172;28;20544;-71
2023/11/12 06:06:41;;;;;;;12.90;1.50;;;;;;;;;;5865130;28;20176;-71
2023/11/12 06:09:32;;;;;;;0.68;0.68;;;;;;;;;;5865142;28;20045;-72
2023/11/12 06:12:23;;;;;;;1.58;0.82;;;;;;;;;;5864962;28;20053;-72
2023/11/12 06:15:13;;;;;;;0.90;0.80;;;;;;;;;;5864998;28;20053;-72
2023/11/12 06:18:04;;;;;;;5.05;0.88;;;;;;;;;;5864903;28;20053;-72
2023/11/12 06:20:55;;;;;;;1.42;1.08;;;;;;;;;;5865560;28;20084;-72
2023/11/12 06:23:46;;;;;;;3.08;1.27;;;;;;;;;;5864825;28;20521;-72
2023/11/12 06:26:36;;;;;;;0.75;0.68;;;;;;;;;;5864832;28;20049;-72
2023/11/12 06:29:28;;;;;;;1.05;0.95;;;;;;;;;;5864710;28;20072;-72
2023/11/12 06:32:19;;;;;;;0.80;0.60;;;;;;;;;;5864581;28;20046;-72
2023/11/12 06:35:09;;;;;;;0.70;0.70;;;;;;;;;;5864599;28;20052;-72
2023/11/12 06:38:00;;;;;;;0.60;0.60;;;;;;;;;;5864902;28;20067;-72
2023/11/12 06:40:51;;;;;;;1.63;0.90;;;;;;;;;;5864863;28;20045;-71
2023/11/12 06:43:42;;;;;;;3.08;2.00;;;;;;;;;;5864452;28;20051;-71
2023/11/12 06:46:32;;;;;;;4.38;3.78;;;;;;;;;;5864399;28;20055;-71
2023/11/12 06:49:23;;;;;;;16.23;5.07;;;;;;;;;;5864316;28;20099;-71
2023/11/12 06:52:15;;;;;;;7.13;4.35;;;;;;;;;;5864158;28;20053;-71
2023/11/12 06:55:07;;;;;;;5.60;4.72;;;;;;;;;;5864169;28;20054;-71
2023/11/12 06:57:58;;;;;;;11.57;6.15;;;;;;;;;;5864611;28;20048;-72
2023/11/12 07:00:50;;;;;;;8.32;6.10;;;;;;;;;;5864265;28;20061;-72
2023/11/12 07:03:41;;;;;;;5.72;2.78;;;;;;;;;;5863872;28;20154;-72
2023/11/12 07:06:32;;;;;;;3.67;2.08;;;;;;;;;;5863980;28;20045;-72
2023/11/12 07:09:25;;;;;;;2.90;2.65;;;;;;;;;;5863758;28;20042;-72
2023/11/12 07:12:16;;;;;;;10.25;3.47;;;;;;;;;;5863573;28;20732;-72
2023/11/12 07:15:08;;;;;;;6.40;4.45;;;;;;;;;;5863717;28;20063;-72
2023/11/12 07:17:58;;;;;;;5.70;3.42;;;;;;;;;;5863689;28;20454;-72
2023/11/12 07:20:49;;;;;;;5.47;3.42;;;;;;;;;;5863892;28;20042;-71
2023/11/12 07:23:40;;;;;;;5.05;3.47;;;;;;;;;;5863477;28;20052;-72
2023/11/12 07:26:31;;;;;;;7.63;4.18;;;;;;;;;;5863357;28;20049;-72
2023/11/12 07:29:22;;;;;;;3.97;2.72;;;;;;;;;;5863217;28;20045;-72
2023/11/12 07:32:13;;;;;;;7.38;3.95;;;;;;;;;;5863122;28;20094;-72
2023/11/12 07:35:04;;;;;;;5.78;2.45;;;;;;;;;;5863253;28;20053;-72
2023/11/12 07:37:56;;;;;;;2.70;2.50;;;;;;;;;;5863478;28;20056;-72
2023/11/12 07:40:46;;;;;;;4.95;3.70;;;;;;;;;;5863180;28;20052;-72
2023/11/12 07:43:40;;;;;;;4.70;2.47;;;;;;;;;;5862997;28;20057;-72
2023/11/12 07:46:31;;;;;;;8.80;2.35;;;;;;;;;;5863007;28;20041;-72
2023/11/12 07:49:23;;;;;;;2.80;2.22;;;;;;;;;;5863017;28;20041;-71
2023/11/12 07:52:14;;;;;;;3.47;2.70;;;;;;;;;;5862669;28;20053;-72
2023/11/12 07:55:05;;;;;;;3.35;2.67;;;;;;;;;;5863011;28;20057;-72
2023/11/12 07:57:56;;;;;;;6.45;2.13;;;;;;;;;;5863448;28;20045;-71
2023/11/12 08:00:47;;;;;;;2.92;2.70;;;;;;;;;;5861316;28;20045;-72
2023/11/12 08:03:38;;;;;;;3.65;1.65;;;;;;;;;;5862567;28;20049;-72
2023/11/12 08:06:29;;;;;;;2.67;1.70;;;;;;;;;;5862586;28;20119;-72
2023/11/12 08:09:20;;;;;;;1.58;1.48;;;;;;;;;;5862411;28;20530;-72
2023/11/12 08:12:11;;;;;;;1.67;1.58;;;;;;;;;;5862262;28;20180;-72
2023/11/12 08:15:02;;;;;;;0.85;0.82;;;;;;;;;;5862593;28;20041;-72
2023/11/12 08:17:53;;;;;;;1.98;1.75;;;;;;;;;;5861583;28;20043;-72
2023/11/12 08:20:44;;;;;;;6.35;3.80;;;;;;;;;;5862439;28;20057;-72
2023/11/12 08:23:35;;;;;;;2.20;2.00;;;;;;;;;;5862331;28;20050;-72
2023/11/12 08:26:29;;;;;;;1.67;1.58;;;;;;;;;;5862308;28;20060;-72
2023/11/12 08:29:20;;;;;;;2.00;1.85;;;;;;;;;;5861585;28;20053;-72
2023/11/12 08:32:11;;;;;;;1.58;1.48;;;;;;;;;;5861984;28;20037;-72
2023/11/12 08:35:02;;;;;;;3.83;1.50;;;;;;;;;;5862258;28;20056;-72
2023/11/12 08:37:53;;;;;;;2.17;1.98;;;;;;;;;;5862567;28;20064;-72
2023/11/12 08:40:45;;;;;;;2.97;1.58;;;;;;;;;;5860580;28;20462;-72
2023/11/12 08:43:36;;;;;;;13.38;2.40;;;;;;;;;;5861938;28;20134;-72
2023/11/12 08:46:27;;;;;;;0.88;0.88;;;;;;;;;;5862015;28;20045;-72
2023/11/12 08:49:18;;;;;;;4.15;2.17;;;;;;;;;;5861847;28;20057;-72
2023/11/12 08:52:11;;;;;;;1.15;1.05;;;;;;;;;;5862094;28;20072;-72
2023/11/12 08:55:02;;;;;;;1.38;1.08;;;;;;;;;;5861769;28;20410;-72
2023/11/12 08:57:53;;;;;;;1.48;1.00;;;;;;;;;;5862308;28;20415;-72
2023/11/12 09:00:44;;;;;;;1.65;1.50;;;;;;;;;;5861708;28;20045;-72
2023/11/12 09:03:35;;;;;;;1.00;0.95;;;;;;;;;;5861655;28;20052;-72
2023/11/12 09:06:26;;;;;;;3.28;1.63;;;;;;;;;;5862061;28;20482;-72
2023/11/12 09:09:17;;;;;;;0.93;0.90;;;;;;;;;;5861524;28;20045;-72
2023/11/12 09:12:08;;;;;;;1.38;1.27;;;;;;;;;;5861618;28;20471;-72
2023/11/12 09:15:00;;;;;;;4.53;1.98;;;;;;;;;;5862314;28;20411;-72
2023/11/12 09:17:53;;;;;;;1.45;0.90;;;;;;;;;;5861682;28;20049;-72
2023/11/12 09:20:44;;;;;;;2.22;1.52;;;;;;;;;;5861470;28;20053;-72
2023/11/12 09:23:35;;;;;;;2.25;1.20;;;;;;;;;;5861593;28;20073;-72
2023/11/12 09:26:25;;;;;;;3.55;3.20;;;;;;;;;;5861868;28;20545;-72
2023/11/12 09:29:16;;;;;;;1.40;1.30;;;;;;;;;;5861474;28;20100;-72
2023/11/12 09:32:07;;;;;;;2.45;2.28;;;;;;;;;;5861361;28;20046;-72
2023/11/12 09:34:58;;;;;;;4.43;2.80;;;;;;;;;;5862016;28;20123;-72
2023/11/12 09:37:50;;;;;;;2.10;1.13;;;;;;;;;;5861422;28;20187;-72
2023/11/12 09:40:42;;;;;;;11.95;1.63;;;;;;;;;;5863197;28;20514;-72
2023/11/12 09:43:33;;;;;;;1.63;1.52;;;;;;;;;;5865722;28;20068;-72
2023/11/12 09:46:24;;;;;;;2.90;2.70;;;;;;;;;;5865844;28;20041;-72
2023/11/12 09:49:15;;;;;;;1.75;1.52;;;;;;;;;;5864157;28;20179;-72
2023/11/12 09:52:06;;;;;;;1.60;1.50;;;;;;;;;;5865569;28;20403;-72
2023/11/12 09:54:57;;;;;;;1.48;1.30;;;;;;;;;;5864945;28;20061;-72
2023/11/12 09:57:51;;;;;;;1.85;1.35;;;;;;;;;;5864209;28;20231;-72
2023/11/12 10:00:43;;;;;;;1.92;1.33;;;;;;;;;;5865551;28;20053;-72
2023/11/12 10:03:35;;;;;;;4.03;2.63;;;;;;;;;;5865588;28;20077;-72
2023/11/12 10:06:26;;;;;;;2.50;2.30;;;;;;;;;;5865485;28;20057;-72
2023/11/12 10:09:31;;;;;;;2.15;2.03;;;;;;;;;;5863995;28;20049;-72
2023/11/12 10:12:22;;;;;;;2.30;1.95;;;;;;;;;;5865215;28;20050;-72
2023/11/12 10:15:12;;;;;;;9.02;6.78;;;;;;;;;;5865132;28;20418;-72
2023/11/12 10:18:03;;;;;;;7.60;2.70;;;;;;;;;;5865251;28;20045;-72
2023/11/12 10:21:06;;;;;;;15.38;6.10;;;;;;;;;;5865610;28;20055;-72
2023/11/12 10:24:06;;;;;;;17.75;9.32;;;;;;;;;;5865244;28;20045;-72
2023/11/12 10:27:05;;;;;;;9.15;5.82;;;;;;;;;;5863945;28;20041;-72
2023/11/12 10:29:55;;;;;;;;;;;;;;;;;;5880859;28;20103;-72
2023/11/12 10:32:47;;;;;;;2.15;1.95;;;;;;;;;;5864702;28;19932;-72
2023/11/12 10:35:37;;;;;;;1.60;1.50;;;;;;;;;;5863296;28;20045;-72
2023/11/12 10:38:49;;;;;;;2.40;1.85;;;;;;;;;;5864591;28;20048;-72
2023/11/12 10:41:40;;;;;;;3.88;2.17;;;;;;;;;;5864612;28;20045;-71
2023/11/12 10:44:33;;;;;;;4.10;2.15;;;;;;;;;;5864465;28;20454;-72
2023/11/12 10:47:32;;;;;;;2.42;2.05;;;;;;;;;;5864658;28;20050;-72
2023/11/12 10:50:25;;;;;;;2.42;2.05;;;;;;;;;;5864265;28;20046;-72
2023/11/12 10:53:16;;;;;;;5.95;1.67;;;;;;;;;;5864150;28;20471;-72
2023/11/12 10:56:07;;;;;;;5.38;2.65;;;;;;;;;;5864253;28;20056;-72
2023/11/12 10:58:59;;;;;;;1.77;1.60;;;;;;;;;;5864842;28;20427;-72
2023/11/12 11:01:51;;;;;;;3.72;2.22;;;;;;;;;;5864320;28;20049;-72
2023/11/12 11:04:45;;;;;;;17.73;7.38;;;;;;;;;;5862760;28;20050;-72
2023/11/12 11:07:37;;;;;;;5.97;4.65;;;;;;;;;;5864120;28;20045;-72
2023/11/12 11:10:28;;;;;;;4.07;3.38;;;;;;;;;;5864046;28;20049;-72
2023/11/12 11:13:19;;;;;;;15.95;8.40;;;;;;;;;;5863853;28;20045;-72
2023/11/12 11:16:30;;;;;;;5.75;3.83;;;;;;;;;;5864007;28;20419;-72
2023/11/12 11:19:45;;;;;;;2.35;2.15;;;;;;;;;;5862875;28;20057;-72
2023/11/12 11:22:36;;;;;;;3.72;3.20;;;;;;;;;;5863870;28;20064;-72
2023/11/12 11:25:29;;;;;;;2.90;2.33;;;;;;;;;;5863906;28;20057;-72
2023/11/12 11:28:21;;;;;;;3.40;3.10;;;;;;;;;;5863699;28;20057;-72
2023/11/12 11:31:12;;;;;;;2.72;2.38;;;;;;;;;;5863798;28;20440;-72
2023/11/12 11:34:04;;;;;;;2.22;1.88;;;;;;;;;;5863556;28;20084;-72
2023/11/12 11:37:01;;;;;;;1.88;1.52;;;;;;;;;;5863913;28;20611;-72
2023/11/12 11:39:52;;;;;;;2.67;2.08;;;;;;;;;;5863649;28;20392;-72
2023/11/12 11:42:43;;;;;;;5.32;3.92;;;;;;;;;;5863236;28;20391;-72
2023/11/12 11:46:08;;;;;;;3.53;2.67;;;;;;;;;;5863336;28;20072;-72
2023/11/12 11:49:02;;;;;;;3.42;2.60;;;;;;;;;;5878354;28;20046;-72
2023/11/12 11:51:52;;;;;;;6.07;1.58;;;;;;;;;;5863208;28;20034;-72
2023/11/12 11:54:44;;;;;;;1.40;1.30;;;;;;;;;;5862948;28;20603;-72
2023/11/12 11:57:46;;;;;;;2.67;2.28;;;;;;;;;;5862962;28;20128;-72
2023/11/12 12:00:59;;;;;;;7.45;3.67;;;;;;;;;;5861859;28;20072;-72
2023/11/12 12:04:04;;;;;;;1.27;1.17;;;;;;;;;;5862803;28;20053;-72
2023/11/12 12:06:56;;;;;;;7.55;4.00;;;;;;;;;;5862964;28;20060;-72
2023/11/12 12:09:47;;;;;;;2.95;2.10;;;;;;;;;;5862785;28;20515;-72
2023/11/12 12:12:37;;;;;;;1.67;1.58;;;;;;;;;;5862550;28;20055;-72
2023/11/12 12:15:28;;;;;;;2.25;1.98;;;;;;;;;;5862791;28;20049;-72
2023/11/12 12:18:22;;;;;;;2.63;2.08;;;;;;;;;;5862667;28;20462;-72
2023/11/12 12:21:14;;;;;;;3.25;2.92;;;;;;;;;;5862576;28;20119;-72
2023/11/12 12:24:06;;;;;;;6.05;2.45;;;;;;;;;;5862602;28;20060;-72
2023/11/12 12:26:56;;;;;;;2.85;2.58;;;;;;;;;;5862907;28;20107;-72
2023/11/12 12:29:50;;;;;;;4.47;2.72;;;;;;;;;;5862490;28;20045;-72
2023/11/12 12:32:40;;;;;;;7.55;3.80;;;;;;;;;;5862263;28;20141;-72
2023/11/12 12:35:31;;;;;;;4.55;3.95;;;;;;;;;;5862417;28;20049;-72
2023/11/12 12:38:22;;;;;;;3.45;3.08;;;;;;;;;;5862132;28;20182;-72
2023/11/12 12:41:13;;;;;;;4.68;3.28;;;;;;;;;;5862242;28;20049;-72
2023/11/12 12:44:04;;;;;;;3.08;2.63;;;;;;;;;;5862081;28;20066;-72
2023/11/12 12:46:55;;;;;;;4.50;3.15;;;;;;;;;;5861986;28;20056;-72
2023/11/12 12:49:48;;;;;;;8.55;3.95;;;;;;;;;;5862191;28;20044;-72
2023/11/12 12:52:44;;;;;;;3.88;3.50;;;;;;;;;;5861995;28;20128;-71
2023/11/12 12:55:35;;;;;;;3.28;2.42;;;;;;;;;;5859696;28;20046;-72
2023/11/12 12:58:40;;;;;;;3.55;3.05;;;;;;;;;;5861779;28;20132;-72
2023/11/12 13:01:31;;;;;;;2.85;2.63;;;;;;;;;;5871102;28;20049;-72
2023/11/12 13:04:22;;;;;;;3.28;2.95;;;;;;;;;;5883364;28;20045;-72
2023/11/12 13:07:14;;;;;;;5.65;3.95;;;;;;;;;;5878614;28;20064;-71
2023/11/12 13:10:11;;;;;;;4.10;2.88;;;;;;;;;;5884961;28;20136;-72
2023/11/12 13:13:04;;;;;;;3.03;2.38;;;;;;;;;;5885650;28;20183;-72
2023/11/12 13:15:55;;;;;;;11.35;7.15;;;;;;;;;;5889099;28;20052;-72
2023/11/12 13:18:47;;;;;;;7.45;4.13;;;;;;;;;;5889943;28;20041;-72
2023/11/12 13:21:38;;;;;;;4.93;3.78;;;;;;;;;;5889713;28;20051;-72
2023/11/12 13:24:48;;;;;;;36.88;13.95;;;;;;;;;;5888538;28;20510;-72
2023/11/12 13:27:44;;;;;;;24.83;14.57;;;;;;;;;;5889463;28;20071;-72
2023/11/12 13:30:36;;;;;;;15.52;9.98;;;;;;;;;;5889439;28;20044;-72
2023/11/12 13:33:27;;;;;;;9.43;6.95;;;;;;;;;;5889781;28;20410;-72
2023/11/12 13:36:18;;;;;;;8.52;6.93;;;;;;;;;;5889447;28;20063;-72
2023/11/12 13:39:10;;;;;;;14.63;8.63;;;;;;;;;;5889300;28;20055;-72
2023/11/12 13:42:02;;;;;;;13.80;8.18;;;;;;;;;;5889043;28;20045;-72
2023/11/12 13:44:53;;;;;;;6.88;5.88;;;;;;;;;;5889778;28;20048;-72
2023/11/12 13:47:44;;;;;;;9.60;8.35;;;;;;;;;;5888913;28;20502;-72
2023/11/12 13:50:35;;;;;;;3.35;3.05;;;;;;;;;;5888280;28;20077;-72
2023/11/12 13:53:27;;;;;;;5.03;4.60;;;;;;;;;;5889340;28;20041;-72
2023/11/12 13:56:18;;;;;;;7.97;6.75;;;;;;;;;;5888771;28;20060;-72
2023/11/12 13:59:09;;;;;;;15.90;7.35;;;;;;;;;;5888913;28;20127;-72
2023/11/12 14:02:00;;;;;;;8.10;6.05;;;;;;;;;;5889276;28;20454;-72
2023/11/12 14:04:51;;;;;;;10.27;7.03;;;;;;;;;;5889165;28;20469;-72
2023/11/12 14:07:41;;;;;;;11.02;6.95;;;;;;;;;;5888194;28;20049;-72
2023/11/12 14:10:33;;;;;;;16.23;8.93;;;;;;;;;;5888470;28;20049;-72
2023/11/12 14:13:24;;;;;;;29.55;20.13;;;;;;;;;;5888488;28;20049;-72
2023/11/12 14:16:15;;;;;;;11.73;9.98;;;;;;;;;;5888019;28;20507;-72
2023/11/12 14:19:10;;;;;;;15.93;10.32;;;;;;;;;;5888032;28;20060;-72
2023/11/12 14:22:02;;;;;;;11.00;7.55;;;;;;;;;;5887761;28;20094;-72
2023/11/12 14:24:54;;;;;;;12.48;9.88;;;;;;;;;;5887572;28;20051;-73
2023/11/12 14:27:49;;;;;;;39.67;27.05;;;;;;;;;;5886379;28;20056;-72
2023/11/12 14:30:41;;;;;;;21.27;11.20;;;;;;;;;;5886849;28;20098;-72
2023/11/12 14:33:33;;;;;;;8.13;5.13;;;;;;;;;;5887243;28;20045;-72
2023/11/12 14:36:25;;;;;;;19.83;9.02;;;;;;;;;;5887472;28;20556;-72
2023/11/12 14:39:22;;;;;;;18.73;9.10;;;;;;;;;;5887054;28;20049;-72
2023/11/12 14:42:13;;;;;;;25.30;11.88;;;;;;;;;;5886457;28;20060;-72
2023/11/12 14:45:05;;;;;;;7.53;6.07;;;;;;;;;;5887021;28;20060;-72
2023/11/12 14:48:12;;;;;;;15.77;10.60;;;;;;;;;;5886662;28;20478;-72
2023/11/12 14:51:05;;;;;;;6.97;6.28;;;;;;;;;;5887234;28;20384;-72
2023/11/12 14:53:58;;;;;;;7.00;5.90;;;;;;;;;;5888023;28;20520;-72
2023/11/12 14:56:55;;;;;;;9.18;4.60;;;;;;;;;;5887659;28;20059;-72
2023/11/12 14:59:46;;;;;;;9.88;7.40;;;;;;;;;;5887263;28;20056;-72
2023/11/12 15:02:37;;;;;;;14.73;7.72;;;;;;;;;;5887374;28;20049;-72
2023/11/12 15:05:28;;;;;;;12.88;11.27;;;;;;;;;;5887541;28;20122;-72
2023/11/12 15:08:19;;;;;;;24.42;14.68;;;;;;;;;;5887358;28;20053;-72
2023/11/12 15:11:14;;;;;;;16.02;11.23;;;;;;;;;;5886725;28;20060;-72
2023/11/12 15:14:04;;;;;;;19.95;11.85;;;;;;;;;;5887308;28;20057;-72
2023/11/12 15:16:57;;;;;;;14.45;7.78;;;;;;;;;;5887547;28;20056;-72
2023/11/12 15:19:48;;;;;;;11.38;7.38;;;;;;;;;;5886909;28;20059;-72
2023/11/12 15:22:43;;;;;;;9.45;8.07;;;;;;;;;;5863943;28;20056;-72
2023/11/12 15:25:34;;;;;;;14.73;7.95;;;;;;;;;;5869802;28;20450;-72
2023/11/12 15:28:28;;;;;;;12.27;6.72;;;;;;;;;;5885094;28;20045;-72
2023/11/12 15:31:19;;;;;;;14.18;7.10;;;;;;;;;;5885712;28;20055;-72
2023/11/12 15:34:10;;;;;;;17.70;8.23;;;;;;;;;;5886086;28;20053;-72
2023/11/12 15:37:01;;;;;;;12.68;9.45;;;;;;;;;;5885667;28;20510;-72
2023/11/12 15:39:54;;;;;;;21.75;12.23;;;;;;;;;;5885420;28;20048;-72
2023/11/12 15:42:55;;;;;;;13.63;6.97;;;;;;;;;;5885832;28;20044;-72
2023/11/12 15:45:46;;;;;;;9.48;4.95;;;;;;;;;;5885312;28;20041;-72
2023/11/12 15:48:36;;;;;;;10.05;5.95;;;;;;;;;;5885310;28;20045;-72
2023/11/12 15:51:27;;;;;;;5.45;4.70;;;;;;;;;;5868588;28;20055;-72
2023/11/12 15:54:18;;;;;;;9.18;7.97;;;;;;;;;;5885078;28;20056;-72
2023/11/12 15:57:09;;;;;;;20.20;10.90;;;;;;;;;;5885287;28;20059;-72
2023/11/12 15:59:59;;;;;;;19.45;12.18;;;;;;;;;;5885577;28;20059;-72
2023/11/12 16:02:50;;;;;;;12.40;8.90;;;;;;;;;;5866188;28;20049;-72
2023/11/12 16:05:48;;;;;;;19.10;9.27;;;;;;;;;;5861482;28;20094;-72
2023/11/12 16:08:40;;;;;;;13.30;10.23;;;;;;;;;;5861999;28;20065;-72
2023/11/12 16:11:43;;;;;;;14.00;10.18;;;;;;;;;;5861547;28;20097;-72
2023/11/12 16:14:34;;;;;;;18.83;8.32;;;;;;;;;;5861779;28;20674;-72
2023/11/12 16:17:24;;;;;;;6.78;5.07;;;;;;;;;;5861644;28;20045;-72
2023/11/12 16:20:20;;;;;;;6.35;4.93;;;;;;;;;;5860975;28;20049;-72
2023/11/12 16:23:10;;;;;;;13.30;8.82;;;;;;;;;;5881255;28;20491;-72
2023/11/12 16:26:01;;;;;;;16.83;10.90;;;;;;;;;;5884897;28;20044;-72
2023/11/12 16:28:52;;;;;;;18.88;12.02;;;;;;;;;;5885747;28;20053;-72
2023/11/12 16:31:43;;;;;;;29.65;20.88;;;;;;;;;;5869384;28;20072;-73
2023/11/12 16:34:34;;;;;;;29.80;21.83;;;;;;;;;;5886387;28;20047;-73
2023/11/12 16:37:25;;;;;;;17.30;12.15;;;;;;;;;;5886298;28;20049;-73
2023/11/12 16:40:17;;;;;;;13.65;7.68;;;;;;;;;;5886058;28;20059;-73
2023/11/12 16:43:09;;;;;;;4.85;3.58;;;;;;;;;;5886170;28;20092;-72
2023/11/12 16:46:00;;;;;;;8.38;5.00;;;;;;;;;;5886324;28;20049;-71
2023/11/12 16:48:51;;;;;;;4.35;3.03;;;;;;;;;;5884578;28;20063;-70
2023/11/12 16:51:42;;;;;;;6.25;4.28;;;;;;;;;;5885726;28;20052;-70
2023/11/12 16:54:34;;;;;;;6.28;3.50;;;;;;;;;;5863121;28;20045;-71
2023/11/12 16:57:25;;;;;;;3.95;2.80;;;;;;;;;;5883099;28;20048;-71
2023/11/12 17:00:21;;;;;;;7.22;3.70;;;;;;;;;;5885463;28;20045;-71
2023/11/12 17:03:13;;;;;;;6.47;5.88;;;;;;;;;;5885915;28;20052;-71
2023/11/12 17:06:05;;;;;;;14.32;9.80;;;;;;;;;;5885034;28;20049;-72